Time;durP1;ratioP1;P1;durP2;ratioP2;P2;SDS_P1;SDS_P2;PMS_P1;PMS_P2;Temp;Humidity;BMP_temperature;BMP_pressure;BME280_temperature;BME280_humidity;BME280_pressure;Samples;Min_cycle;Max_cycle;Signal;HPM_P1;HPM_P2
2022/08/20 00:01:38;;;;;;;14.07;12.13;;;;;;;19.77;72.56;99516.13;4988918;28;20210;-77
2022/08/20 00:04:03;;;;;;;16.07;13.83;;;;;;;19.74;72.67;99519.13;4976193;28;20226;-77
2022/08/20 00:06:29;;;;;;;14.57;13.07;;;;;;;19.72;72.74;99515.78;4982131;28;20188;-78
2022/08/20 00:08:54;;;;;;;14.93;12.10;;;;;;;19.68;72.58;99514.41;4989340;28;20934;-78
2022/08/20 00:11:23;;;;;;;14.77;13.30;;;;;;;19.61;72.78;99506.19;4993865;28;20954;-77
2022/08/20 00:13:52;;;;;;;16.77;13.93;;;;;;;19.53;73.08;99518.63;4985086;28;20227;-77
2022/08/20 00:16:20;;;;;;;15.10;13.07;;;;;;;19.50;73.31;99524.28;4982635;28;20462;-77
2022/08/20 00:18:46;;;;;;;13.93;11.63;;;;;;;19.49;73.20;99527.91;4979377;28;20542;-78
2022/08/20 00:21:14;;;;;;;16.60;15.00;;;;;;;19.51;73.15;99526.78;4992190;28;20476;-78
2022/08/20 00:23:44;;;;;;;15.13;12.57;;;;;;;19.48;73.23;99518.28;4986224;28;20454;-77
2022/08/20 00:26:10;;;;;;;14.67;13.10;;;;;;;19.43;73.44;99521.41;4975197;28;20466;-76
2022/08/20 00:28:37;;;;;;;14.33;12.47;;;;;;;19.40;73.53;99516.38;4990898;28;20550;-78
2022/08/20 00:31:09;;;;;;;16.60;13.23;;;;;;;19.36;73.72;99517.66;4982079;28;21013;-77
2022/08/20 00:33:35;;;;;;;19.70;14.00;;;;;;;19.30;73.80;99519.13;4981583;28;20498;-76
2022/08/20 00:36:05;;;;;;;17.37;14.37;;;;;;;19.32;74.04;99525.16;4979996;28;20466;-78
2022/08/20 00:38:36;;;;;;;15.23;13.63;;;;;;;19.37;73.94;99520.19;4989042;28;21294;-78
2022/08/20 00:41:03;;;;;;;16.70;13.20;;;;;;;19.43;73.48;99522.22;4977844;28;20493;-76
2022/08/20 00:43:51;;;;;;;14.90;13.33;;;;;;;19.49;73.46;99515.44;4976794;28;20474;-77
2022/08/20 00:46:24;;;;;;;13.43;12.10;;;;;;;19.52;73.64;99524.94;4981022;28;20455;-77
2022/08/20 00:48:53;;;;;;;15.37;13.80;;;;;;;19.52;73.57;99523.09;4982828;28;21009;-77
2022/08/20 00:51:37;;;;;;;16.40;13.50;;;;;;;19.50;73.53;99530.44;4990804;28;20489;-78
2022/08/20 00:54:19;;;;;;;17.37;13.63;;;;;;;19.49;73.58;99530.59;4974923;28;20557;-76
2022/08/20 00:56:49;;;;;;;15.47;12.90;;;;;;;19.51;73.70;99528.59;4978929;28;20447;-76
2022/08/20 00:59:20;;;;;;;16.17;13.80;;;;;;;19.52;73.77;99525.75;4983222;28;20475;-77
2022/08/20 01:01:47;;;;;;;14.60;11.67;;;;;;;19.54;73.76;99520.28;4983328;28;20553;-77
2022/08/20 01:04:13;;;;;;;16.83;13.67;;;;;;;19.56;73.78;99524.47;4985026;28;20465;-77
2022/08/20 01:06:40;;;;;;;14.37;12.80;;;;;;;19.55;73.91;99522.81;4992749;28;20485;-77
2022/08/20 01:09:06;;;;;;;17.33;14.70;;;;;;;19.53;74.07;99519.47;4998373;28;20318;-78
2022/08/20 01:11:33;;;;;;;15.37;13.13;;;;;;;19.54;74.07;99523.78;4979535;28;20471;-77
2022/08/20 01:14:01;;;;;;;17.07;13.40;;;;;;;19.53;74.04;99530.13;4978607;28;20494;-78
2022/08/20 01:16:30;;;;;;;14.47;12.17;;;;;;;19.56;74.01;99539.63;4975535;28;20673;-77
2022/08/20 01:18:56;;;;;;;15.00;13.13;;;;;;;19.52;74.10;99533.75;4983723;28;20458;-76
2022/08/20 01:21:25;;;;;;;18.07;14.13;;;;;;;19.47;74.28;99530.75;4988426;28;20513;-78
2022/08/20 01:24:27;;;;;;;15.80;13.67;;;;;;;19.40;74.48;99519.88;4986135;28;20607;-77
2022/08/20 01:26:53;;;;;;;16.33;14.47;;;;;;;19.41;74.71;99526.88;4980828;28;20990;-77
2022/08/20 01:29:24;;;;;;;13.80;12.40;;;;;;;19.45;74.59;99524.75;4986181;28;20541;-77
2022/08/20 01:31:50;;;;;;;13.60;12.00;;;;;;;19.52;74.47;99530.25;4989946;28;20474;-78
2022/08/20 01:34:18;;;;;;;15.17;13.07;;;;;;;19.60;74.31;99530.31;4982032;28;20451;-77
2022/08/20 01:36:56;;;;;;;16.07;13.20;;;;;;;19.66;74.02;99535.06;4985922;28;20537;-78
2022/08/20 01:39:31;;;;;;;16.50;13.43;;;;;;;19.71;73.95;99537.25;4986082;28;20465;-76
2022/08/20 01:42:06;;;;;;;15.10;13.27;;;;;;;19.73;73.83;99537.91;4987973;28;20533;-77
2022/08/20 01:44:35;;;;;;;15.70;12.20;;;;;;;19.74;73.67;99543.09;4982054;28;20496;-79
2022/08/20 01:47:11;;;;;;;16.53;14.87;;;;;;;19.72;74.08;99542.41;4981112;28;20575;-78
2022/08/20 01:49:42;;;;;;;15.73;13.50;;;;;;;19.68;74.01;99546.38;4981138;28;20966;-77
2022/08/20 01:52:11;;;;;;;13.97;12.43;;;;;;;19.65;73.99;99547.50;4987497;28;20460;-76
2022/08/20 01:54:37;;;;;;;13.50;12.10;;;;;;;19.66;74.10;99557.22;4982093;28;20447;-76
2022/08/20 01:57:15;;;;;;;14.40;12.97;;;;;;;19.69;74.00;99549.91;4982971;28;20473;-77
2022/08/20 01:59:42;;;;;;;17.17;13.07;;;;;;;19.70;74.02;99549.72;5004761;28;20338;-77
2022/08/20 02:02:08;;;;;;;17.00;13.97;;;;;;;19.75;74.05;99539.44;4983622;28;20469;-76
2022/08/20 02:04:34;;;;;;;13.87;12.47;;;;;;;19.79;73.79;99546.09;4983632;28;20486;-78
2022/08/20 02:07:03;;;;;;;15.40;12.57;;;;;;;19.82;73.71;99548.47;4991783;28;20480;-77
2022/08/20 02:09:31;;;;;;;15.30;13.57;;;;;;;19.81;73.99;99538.78;4977364;28;20246;-76
2022/08/20 02:11:57;;;;;;;15.03;13.50;;;;;;;19.77;73.83;99532.13;4990251;28;20445;-78
2022/08/20 02:14:24;;;;;;;17.03;14.47;;;;;;;19.77;74.18;99534.78;4983094;28;21375;-77
2022/08/20 02:16:49;;;;;;;20.10;12.70;;;;;;;19.78;74.11;99533.78;4988549;28;20455;-77
2022/08/20 02:19:44;;;;;;;16.43;13.80;;;;;;;19.79;74.10;99542.59;4982031;28;21037;-78
2022/08/20 02:22:21;;;;;;;14.80;12.90;;;;;;;19.83;73.96;99547.47;4983975;28;20219;-76
2022/08/20 02:24:46;;;;;;;17.33;15.53;;;;;;;19.89;73.86;99548.66;4989011;28;20473;-76
2022/08/20 02:27:12;;;;;;;13.77;12.30;;;;;;;19.93;73.81;99549.19;4984385;28;20474;-78
2022/08/20 02:29:38;;;;;;;14.97;12.67;;;;;;;19.95;73.72;99545.34;4977063;28;20212;-76
2022/08/20 02:32:05;;;;;;;15.87;12.83;;;;;;;19.98;73.67;99544.19;4975532;28;20494;-76
2022/08/20 02:34:33;;;;;;;17.07;12.97;;;;;;;19.99;73.52;99545.91;4977470;28;20748;-78
2022/08/20 02:36:59;;;;;;;16.40;14.33;;;;;;;19.98;73.55;99539.72;4975411;28;20456;-77
2022/08/20 02:39:25;;;;;;;14.13;12.57;;;;;;;19.97;73.80;99534.53;4975137;28;20466;-78
2022/08/20 02:41:51;;;;;;;14.90;13.27;;;;;;;19.93;73.76;99535.84;4992370;28;20511;-76
2022/08/20 02:44:19;;;;;;;14.40;12.03;;;;;;;19.95;73.81;99539.19;4988103;28;20466;-76
2022/08/20 02:46:44;;;;;;;16.17;14.50;;;;;;;19.95;73.91;99537.34;4983230;28;20478;-78
2022/08/20 02:49:10;;;;;;;17.33;15.07;;;;;;;19.95;73.88;99534.69;4974950;28;20455;-78
2022/08/20 02:51:35;;;;;;;17.53;14.60;;;;;;;19.89;73.94;99540.66;4976914;28;20279;-76
2022/08/20 02:54:01;;;;;;;15.73;14.10;;;;;;;19.82;74.12;99536.97;4988200;28;20207;-77
2022/08/20 02:56:26;;;;;;;15.40;13.43;;;;;;;19.79;74.64;99537.28;4991328;28;20212;-77
2022/08/20 02:58:51;;;;;;;19.00;14.00;;;;;;;19.80;74.53;99534.47;4982317;28;20201;-78
2022/08/20 03:01:17;;;;;;;15.87;12.57;;;;;;;19.83;74.57;99522.66;4988319;28;20920;-77
2022/08/20 03:03:43;;;;;;;17.17;15.38;;;;;;;19.88;74.53;99523.00;5003303;28;20470;-76
2022/08/20 03:06:10;;;;;;;15.13;12.77;;;;;;;19.91;74.76;99513.88;4994610;28;20284;-76
2022/08/20 03:08:36;;;;;;;16.40;14.73;;;;;;;19.94;74.38;99524.22;4975400;28;20612;-77
2022/08/20 03:11:03;;;;;;;16.83;13.13;;;;;;;19.97;74.28;99518.56;4973278;28;20505;-78
2022/08/20 03:13:28;;;;;;;14.33;11.47;;;;;;;19.97;74.34;99515.88;5002122;28;20462;-77
2022/08/20 03:15:58;;;;;;;15.47;13.27;;;;;;;19.98;74.25;99517.53;4982629;28;20486;-76
2022/08/20 03:18:26;;;;;;;14.77;13.00;;;;;;;19.97;74.28;99510.56;4985134;28;20215;-77
2022/08/20 03:20:51;;;;;;;13.02;11.73;;;;;;;20.00;74.20;99510.22;1886789;28;10001076;-77
2022/08/20 03:23:18;;;;;;;14.13;11.50;;;;;;;20.01;73.99;99512.75;4979396;28;20583;-78
2022/08/20 03:25:45;;;;;;;13.20;11.60;;;;;;;20.02;73.93;99511.75;4994563;28;20351;-79
2022/08/20 03:28:11;;;;;;;16.00;12.40;;;;;;;20.04;73.86;99507.09;4988799;28;20486;-76
2022/08/20 03:30:38;;;;;;;12.20;11.00;;;;;;;20.09;73.80;99509.25;4979695;28;20509;-77
2022/08/20 03:33:03;;;;;;;13.50;12.10;;;;;;;20.11;73.83;99507.25;4977668;28;20463;-77
2022/08/20 03:35:32;;;;;;;12.67;11.03;;;;;;;20.14;73.57;99509.59;4979765;28;20459;-76
2022/08/20 03:37:58;;;;;;;14.87;11.67;;;;;;;20.16;73.65;99512.94;4978904;28;20307;-78
2022/08/20 03:40:30;;;;;;;13.63;12.20;;;;;;;20.18;73.57;99518.13;4987985;28;20863;-76
2022/08/20 03:42:57;;;;;;;15.67;12.13;;;;;;;20.14;73.76;99514.94;4979490;28;20471;-76
2022/08/20 03:45:24;;;;;;;15.00;12.10;;;;;;;20.10;73.83;99519.78;4978721;28;20975;-76
2022/08/20 03:47:50;;;;;;;13.83;12.17;;;;;;;20.08;73.98;99512.94;4989942;28;20482;-78
2022/08/20 03:50:17;;;;;;;13.93;12.07;;;;;;;20.04;74.06;99515.09;4989583;28;20474;-78
2022/08/20 03:52:42;;;;;;;14.83;12.50;;;;;;;20.03;74.18;99508.06;4984994;28;20458;-77
2022/08/20 03:55:08;;;;;;;15.17;13.57;;;;;;;19.99;74.40;99508.56;4999825;28;20454;-76
2022/08/20 03:57:34;;;;;;;18.10;12.13;;;;;;;20.00;74.32;99516.38;4984657;28;20216;-76
2022/08/20 04:00:01;;;;;;;14.47;11.20;;;;;;;20.02;74.30;99513.56;4979118;28;20227;-78
2022/08/20 04:02:27;;;;;;;15.07;11.33;;;;;;;20.00;74.49;99516.38;4986425;28;20504;-76
2022/08/20 04:04:53;;;;;;;16.00;11.67;;;;;;;19.96;74.47;99519.56;4977908;28;21088;-78
2022/08/20 04:07:26;;;;;;;14.67;12.50;;;;;;;19.92;74.76;99519.03;4995697;28;20227;-78
2022/08/20 04:09:53;;;;;;;13.80;12.50;;;;;;;19.88;74.77;99523.00;4986097;28;20486;-76
2022/08/20 04:12:19;;;;;;;18.80;12.97;;;;;;;19.84;74.98;99525.16;4975226;28;21187;-76
2022/08/20 04:14:44;;;;;;;16.50;12.40;;;;;;;19.85;74.84;99528.66;4974674;28;20518;-78
2022/08/20 04:17:11;;;;;;;16.03;12.57;;;;;;;19.87;74.79;99532.84;4978380;28;20199;-78
2022/08/20 04:19:37;;;;;;;13.97;11.53;;;;;;;19.89;74.79;99530.84;4980249;28;20895;-77
2022/08/20 04:22:04;;;;;;;14.50;12.30;;;;;;;19.91;74.83;99538.69;4980434;28;20937;-77
2022/08/20 04:24:30;;;;;;;13.53;11.10;;;;;;;19.93;74.78;99549.19;4979799;28;20466;-76
2022/08/20 04:26:56;;;;;;;16.90;13.20;;;;;;;19.93;74.73;99547.38;4981027;28;20546;-76
2022/08/20 04:29:23;;;;;;;24.43;13.93;;;;;;;19.96;74.58;99541.72;4983102;28;20474;-77
2022/08/20 04:31:49;;;;;;;13.03;11.60;;;;;;;20.01;74.57;99541.22;4978860;28;20503;-78
2022/08/20 04:34:17;;;;;;;13.47;12.07;;;;;;;20.06;74.60;99541.56;4977036;28;20497;-78
2022/08/20 04:36:43;;;;;;;15.87;12.27;;;;;;;20.08;74.54;99540.41;4986612;28;21230;-76
2022/08/20 04:39:08;;;;;;;12.90;11.60;;;;;;;20.11;74.41;99542.75;4980452;28;20479;-76
2022/08/20 04:41:33;;;;;;;13.20;11.87;;;;;;;20.13;74.46;99547.13;4981374;28;20958;-77
2022/08/20 04:43:59;;;;;;;13.30;11.30;;;;;;;20.16;74.41;99552.13;4983402;28;20208;-76
2022/08/20 04:46:27;;;;;;;14.80;11.50;;;;;;;20.19;74.32;99552.63;4992514;28;20226;-78
2022/08/20 04:48:53;;;;;;;16.23;13.00;;;;;;;20.23;74.25;99553.16;4980667;28;20204;-77
2022/08/20 04:51:19;;;;;;;15.30;12.47;;;;;;;20.24;74.32;99552.16;4981019;28;20573;-77
2022/08/20 04:53:45;;;;;;;15.13;11.30;;;;;;;20.26;74.28;99550.16;4978328;28;20451;-77
2022/08/20 04:56:11;;;;;;;13.60;11.97;;;;;;;20.27;74.08;99552.66;4979618;28;20474;-76
2022/08/20 04:58:39;;;;;;;13.30;10.80;;;;;;;20.29;73.85;99561.34;4984462;28;20321;-76
2022/08/20 05:01:07;;;;;;;14.50;11.87;;;;;;;20.33;73.97;99561.84;4982366;28;20475;-78
2022/08/20 05:03:33;;;;;;;12.60;10.77;;;;;;;20.36;74.09;99566.88;4976732;28;20487;-78
2022/08/20 05:06:00;;;;;;;17.23;12.20;;;;;;;20.38;73.91;99566.69;4983831;28;20473;-77
2022/08/20 05:08:26;;;;;;;11.70;10.13;;;;;;;20.41;74.03;99564.53;4981964;28;20485;-77
2022/08/20 05:10:53;;;;;;;12.73;11.43;;;;;;;20.41;73.68;99569.88;4978273;28;20494;-77
2022/08/20 05:13:18;;;;;;;13.80;11.00;;;;;;;20.44;73.59;99574.91;4977882;28;20493;-78
2022/08/20 05:15:44;;;;;;;10.97;9.87;;;;;;;20.43;73.50;99581.22;4986560;28;20539;-76
2022/08/20 05:18:10;;;;;;;12.63;10.80;;;;;;;20.46;73.26;99586.25;4975582;28;20209;-77
2022/08/20 05:20:39;;;;;;;12.60;10.57;;;;;;;20.45;73.34;99583.75;4987877;28;20227;-78
2022/08/20 05:23:09;;;;;;;10.90;9.80;;;;;;;20.45;73.29;99583.75;4982735;28;20545;-76
2022/08/20 05:25:36;;;;;;;11.00;9.77;;;;;;;20.45;73.24;99584.56;4996613;28;20455;-77
2022/08/20 05:28:12;;;;;;;9.70;8.70;;;;;;;20.44;73.45;99585.59;4984183;28;21010;-77
2022/08/20 05:30:40;;;;;;;11.67;9.40;;;;;;;20.44;73.49;99585.59;4982038;28;20494;-78
2022/08/20 05:33:07;;;;;;;10.57;8.67;;;;;;;20.49;73.46;99587.75;4991075;28;20454;-77
2022/08/20 05:35:37;;;;;;;10.60;8.67;;;;;;;20.51;73.21;99585.75;4993992;28;20474;-78
2022/08/20 05:38:04;;;;;;;11.20;9.03;;;;;;;20.56;73.36;99583.47;4984051;28;20464;-77
2022/08/20 05:40:33;;;;;;;8.80;7.90;;;;;;;20.60;73.19;99578.63;4991143;28;20571;-77
2022/08/20 05:42:59;;;;;;;9.57;8.10;;;;;;;20.63;73.27;99588.97;4992594;28;20459;-74
2022/08/20 05:45:24;;;;;;;9.83;7.20;;;;;;;20.66;73.37;99583.34;4988678;28;20466;-76
2022/08/20 05:47:50;;;;;;;9.70;8.30;;;;;;;20.69;73.24;99589.19;4987784;28;20254;-77
2022/08/20 05:50:16;;;;;;;10.33;9.03;;;;;;;20.70;73.23;99587.34;4985478;28;20231;-73
2022/08/20 05:52:42;;;;;;;9.10;7.80;;;;;;;20.71;73.49;99591.66;4991869;28;20188;-75
2022/08/20 05:55:12;;;;;;;6.87;6.07;;;;;;;20.72;73.45;99590.69;4991633;28;20455;-74
2022/08/20 05:57:37;;;;;;;8.03;6.37;;;;;;;20.72;73.56;99583.50;4991455;28;20808;-73
2022/08/20 06:00:07;;;;;;;7.07;6.30;;;;;;;20.74;73.87;99594.88;4989727;28;20560;-74
2022/08/20 06:05:21;;;;;;;9.90;6.97;;;;;;;20.75;73.92;99575.19;4991255;28;20485;-75
2022/08/20 06:07:46;;;;;;;5.70;5.10;;;;;;;20.73;73.93;99569.16;4988077;28;20916;-75
2022/08/20 06:10:12;;;;;;;5.93;5.17;;;;;;;20.72;74.21;99574.69;4991385;28;20239;-76
2022/08/20 06:12:38;;;;;;;5.70;5.10;;;;;;;20.67;74.42;99569.81;4989518;28;20210;-77
2022/08/20 06:15:06;;;;;;;7.20;5.40;;;;;;;20.66;74.42;99576.16;4988663;28;20301;-75
2022/08/20 06:17:32;;;;;;;4.97;4.47;;;;;;;20.63;74.61;99583.66;4985254;28;20255;-74
2022/08/20 06:20:01;;;;;;;6.97;5.67;;;;;;;20.60;74.59;99584.81;4983919;28;20479;-75
2022/08/20 06:22:26;;;;;;;4.83;4.20;;;;;;;20.58;74.80;99584.16;4993644;28;20458;-74
2022/08/20 06:24:52;;;;;;;6.33;4.40;;;;;;;20.56;74.81;99586.16;4993997;28;20833;-78
2022/08/20 06:27:19;;;;;;;7.63;4.00;;;;;;;20.53;74.91;99603.31;4991929;28;20256;-76
2022/08/20 06:29:44;;;;;;;6.40;4.23;;;;;;;20.50;74.91;99618.78;4992284;28;20241;-75
2022/08/20 06:32:10;;;;;;;6.10;4.17;;;;;;;20.45;75.13;99619.25;4991185;28;20446;-75
2022/08/20 06:34:35;;;;;;;11.20;6.03;;;;;;;20.44;75.22;99614.94;4993089;28;20207;-77
2022/08/20 06:37:01;;;;;;;8.83;4.23;;;;;;;20.44;75.42;99616.75;4992160;28;20988;-75
2022/08/20 06:39:29;;;;;;;6.00;4.00;;;;;;;20.42;75.50;99624.91;4993494;28;21145;-75
2022/08/20 06:41:57;;;;;;;4.17;3.43;;;;;;;20.38;75.64;99628.91;4995025;28;20865;-75
2022/08/20 06:44:23;;;;;;;9.03;4.87;;;;;;;20.32;75.77;99635.72;4990377;28;20516;-77
2022/08/20 06:46:48;;;;;;;3.60;3.30;;;;;;;20.30;76.04;99636.84;4989520;28;20474;-75
2022/08/20 06:49:14;;;;;;;6.50;3.60;;;;;;;20.23;76.27;99643.84;4991652;28;20470;-75
2022/08/20 06:51:39;;;;;;;5.60;3.90;;;;;;;20.18;76.57;99644.31;4991970;28;20247;-75
2022/08/20 06:54:05;;;;;;;5.53;3.67;;;;;;;20.15;76.51;99630.47;4995271;28;20274;-76
2022/08/20 06:56:32;;;;;;;3.97;3.30;;;;;;;20.13;76.46;99627.13;4993286;28;20206;-75
2022/08/20 06:58:58;;;;;;;3.80;2.97;;;;;;;20.11;76.66;99629.94;4994439;28;20234;-75
2022/08/20 07:01:24;;;;;;;4.67;3.10;;;;;;;20.15;76.77;99633.13;4991749;28;20463;-75
2022/08/20 07:03:49;;;;;;;4.10;2.93;;;;;;;20.15;76.74;99630.47;4993665;28;20215;-78
2022/08/20 07:06:16;;;;;;;3.43;2.77;;;;;;;20.16;76.41;99632.13;4991699;28;20497;-75
2022/08/20 07:08:42;;;;;;;3.80;2.80;;;;;;;20.19;76.42;99624.63;4997113;28;20230;-75
2022/08/20 07:11:09;;;;;;;4.37;2.50;;;;;;;20.23;76.30;99638.50;4999645;28;20475;-74
2022/08/20 07:13:36;;;;;;;3.53;3.00;;;;;;;20.28;76.28;99633.50;4997785;28;20465;-75
2022/08/20 07:16:03;;;;;;;3.93;3.27;;;;;;;20.37;76.26;99643.25;4993800;28;20461;-75
2022/08/20 07:18:28;;;;;;;4.20;3.30;;;;;;;20.47;75.97;99643.97;4988465;28;20461;-77
2022/08/20 07:20:55;;;;;;;4.40;3.03;;;;;;;20.59;75.60;99649.03;4992081;28;21107;-77
2022/08/20 07:23:22;;;;;;;4.77;3.40;;;;;;;20.66;75.22;99650.06;4999721;28;20204;-75
2022/08/20 07:25:48;;;;;;;4.10;3.03;;;;;;;20.71;75.06;99645.91;4997629;28;20469;-75
2022/08/20 07:28:20;;;;;;;3.23;2.57;;;;;;;20.77;74.75;99652.44;4992488;28;20473;-76
2022/08/20 07:33:30;;;;;;;3.13;2.23;;;;;;;20.83;74.22;99651.78;4995080;28;20543;-74
2022/08/20 07:36:00;;;;;;;2.50;2.10;;;;;;;20.89;73.81;99659.13;4991178;28;20522;-75
2022/08/20 07:38:28;;;;;;;5.10;2.50;;;;;;;21.00;73.65;99655.31;5009136;28;20559;-75
2022/08/20 07:41:06;;;;;;;1.93;1.73;;;;;;;21.16;72.89;99662.53;4996935;28;20483;-78
2022/08/20 07:43:32;;;;;;;2.47;2.27;;;;;;;21.36;72.51;99658.56;4990810;28;20453;-75
2022/08/20 07:46:00;;;;;;;4.83;2.17;;;;;;;21.53;71.74;99655.94;4993979;28;20461;-77
2022/08/20 07:48:29;;;;;;;3.70;2.60;;;;;;;21.59;71.46;99652.56;4992335;28;20481;-76
2022/08/20 07:50:56;;;;;;;2.27;2.07;;;;;;;21.57;71.05;99654.56;4991718;28;20484;-75
2022/08/20 07:53:22;;;;;;;2.47;1.97;;;;;;;21.76;70.43;99656.06;4988369;28;20466;-74
2022/08/20 07:55:47;;;;;;;3.60;2.83;;;;;;;21.94;69.67;99648.69;4995977;28;20458;-74
2022/08/20 07:58:16;;;;;;;2.20;1.80;;;;;;;22.12;69.25;99653.84;4988406;28;20284;-79
2022/08/20 08:00:42;;;;;;;3.33;1.90;;;;;;;22.23;69.29;99658.03;4986781;28;20243;-78
2022/08/20 08:03:08;;;;;;;2.67;1.80;;;;;;;22.27;69.25;99654.81;4995021;28;20441;-79
2022/08/20 08:05:37;;;;;;;2.30;2.10;;;;;;;22.27;68.94;99656.66;4999036;28;20407;-74
2022/08/20 08:08:05;;;;;;;2.07;1.97;;;;;;;22.25;69.28;99659.53;4989045;28;20218;-76
2022/08/20 08:10:30;;;;;;;2.70;2.13;;;;;;;22.25;69.34;99654.19;4987712;28;20473;-76
2022/08/20 08:12:59;;;;;;;3.03;1.70;;;;;;;22.27;69.67;99659.34;4989062;28;20451;-73
2022/08/20 08:15:30;;;;;;;3.47;1.63;;;;;;;22.26;70.01;99655.00;4987199;28;20646;-74
2022/08/20 08:18:00;;;;;;;2.13;1.67;;;;;;;22.25;69.84;99664.88;4992605;28;20457;-76
2022/08/20 08:20:26;;;;;;;7.40;3.80;;;;;;;22.27;70.23;99668.19;4986931;28;21120;-75
2022/08/20 08:22:52;;;;;;;6.90;4.10;;;;;;;22.23;70.26;99666.88;4986006;28;20981;-73
2022/08/20 08:25:18;;;;;;;34.27;28.00;;;;;;;22.26;70.12;99660.38;4979075;28;20656;-74
2022/08/20 08:27:47;;;;;;;34.07;25.80;;;;;;;22.28;69.83;99661.88;4981662;28;20481;-76
2022/08/20 08:30:14;;;;;;;19.40;14.07;;;;;;;22.27;69.99;99670.88;4983749;28;21086;-76
2022/08/20 08:33:26;;;;;;;6.77;5.77;;;;;;;22.33;69.78;99671.19;4987797;28;20510;-75
2022/08/20 08:35:25;;;;;;;3.40;3.10;;;;;;;22.40;69.49;99670.34;4989736;28;20467;-73
2022/08/20 08:37:52;;;;;;;6.00;3.40;;;;;;;22.46;69.36;99674.16;5007186;28;20464;-78
2022/08/20 08:40:19;;;;;;;2.07;1.57;;;;;;;22.49;69.42;99672.00;4983934;28;20241;-73
2022/08/20 08:42:54;;;;;;;1.83;1.43;;;;;;;22.47;69.23;99671.34;4991106;28;20850;-76
2022/08/20 08:45:20;;;;;;;1.40;1.23;;;;;;;22.45;68.86;99676.03;4992339;28;20465;-76
2022/08/20 08:47:45;;;;;;;2.07;1.23;;;;;;;22.47;68.87;99678.53;4994567;28;20490;-74
2022/08/20 08:50:22;;;;;;;1.77;1.30;;;;;;;22.52;68.49;99678.81;4987491;28;20537;-73
2022/08/20 08:52:52;;;;;;;2.50;1.43;;;;;;;22.56;68.47;99679.34;4992410;28;20202;-73
2022/08/20 08:55:20;;;;;;;2.23;1.40;;;;;;;22.56;68.34;99688.19;4999541;28;20455;-76
2022/08/20 08:57:48;;;;;;;2.00;1.27;;;;;;;22.57;68.26;99679.16;4998634;28;20449;-73
2022/08/20 09:00:17;;;;;;;3.80;1.60;;;;;;;22.59;68.03;99679.81;4993046;28;21023;-73
2022/08/20 09:02:56;;;;;;;2.40;1.50;;;;;;;22.63;68.30;99677.63;5002173;28;20518;-73
2022/08/20 09:05:30;;;;;;;2.77;1.50;;;;;;;22.68;68.17;99677.94;4992048;28;20511;-74
2022/08/20 09:07:57;;;;;;;1.87;1.03;;;;;;;22.73;68.05;99672.88;4983364;28;20486;-73
2022/08/20 09:10:23;;;;;;;1.70;1.10;;;;;;;22.77;67.16;99668.03;4991609;28;20569;-75
2022/08/20 09:12:48;;;;;;;1.20;1.00;;;;;;;22.79;66.98;99677.56;4995998;28;20564;-76
2022/08/20 09:15:14;;;;;;;1.83;1.40;;;;;;;22.71;66.71;99669.53;4983363;28;20270;-75
2022/08/20 09:17:39;;;;;;;1.80;1.50;;;;;;;22.64;66.76;99672.09;4992371;28;20234;-75
2022/08/20 09:20:06;;;;;;;1.83;1.50;;;;;;;22.64;66.59;99679.31;4995209;28;20485;-76
2022/08/20 09:22:32;;;;;;;2.30;1.40;;;;;;;22.64;66.62;99674.78;4993004;28;20319;-73
2022/08/20 09:24:59;;;;;;;1.77;1.20;;;;;;;22.62;66.71;99673.28;4982781;28;20553;-77
2022/08/20 09:27:24;;;;;;;1.60;1.20;;;;;;;22.61;66.48;99664.41;4987944;28;20234;-74
2022/08/20 09:29:52;;;;;;;1.57;1.17;;;;;;;22.65;66.58;99672.94;4994351;28;20479;-74
2022/08/20 09:32:20;;;;;;;5.53;4.93;;;;;;;22.73;66.56;99664.84;4996313;28;20219;-74
2022/08/20 09:34:54;;;;;;;3.00;2.20;;;;;;;22.84;66.27;99669.81;4980633;28;20485;-75
2022/08/20 09:37:21;;;;;;;1.50;1.40;;;;;;;22.94;65.96;99670.44;4978274;28;20793;-73
2022/08/20 09:39:46;;;;;;;1.20;1.10;;;;;;;23.02;65.40;99661.56;4975779;28;20486;-74
2022/08/20 09:42:22;;;;;;;1.43;1.10;;;;;;;22.98;65.04;99662.94;4986442;28;20532;-77
2022/08/20 09:44:48;;;;;;;1.50;1.40;;;;;;;22.99;65.03;99661.91;4982238;28;20656;-73
2022/08/20 09:47:16;;;;;;;2.20;1.40;;;;;;;23.10;64.28;99669.53;4986346;28;20486;-74
2022/08/20 09:49:41;;;;;;;1.43;1.30;;;;;;;23.18;63.89;99666.81;4985636;28;20582;-74
2022/08/20 09:52:09;;;;;;;1.20;1.10;;;;;;;23.29;63.35;99664.72;4986016;28;20549;-73
2022/08/20 09:54:36;;;;;;;1.10;1.00;;;;;;;23.42;62.98;99665.81;4985381;28;20207;-74
2022/08/20 09:57:05;;;;;;;1.47;1.17;;;;;;;23.53;62.48;99664.53;4983221;28;20460;-74
2022/08/20 09:59:32;;;;;;;2.80;1.10;;;;;;;23.54;62.18;99662.69;4985536;28;20772;-80
2022/08/20 10:01:58;;;;;;;1.47;1.37;;;;;;;23.54;61.99;99654.66;4983836;28;20419;-73
2022/08/20 10:04:23;;;;;;;1.53;1.43;;;;;;;23.69;61.60;99658.22;4983319;28;20501;-73
2022/08/20 10:06:49;;;;;;;1.20;1.10;;;;;;;23.90;60.77;99654.88;4981202;28;20547;-73
2022/08/20 10:09:15;;;;;;;1.60;1.50;;;;;;;24.03;59.93;99655.06;4982850;28;20595;-77
2022/08/20 10:11:40;;;;;;;1.30;1.20;;;;;;;24.19;59.46;99655.91;4982333;28;20951;-73
2022/08/20 10:14:07;;;;;;;1.50;1.40;;;;;;;24.35;59.07;99649.50;4985356;28;20202;-77
2022/08/20 10:16:33;;;;;;;1.27;1.10;;;;;;;24.47;58.79;99659.66;4984619;28;20250;-74
2022/08/20 10:18:59;;;;;;;1.77;1.27;;;;;;;24.63;58.27;99660.47;4982249;28;20427;-74
2022/08/20 10:21:24;;;;;;;2.20;1.60;;;;;;;24.73;57.84;99655.63;4979089;28;20487;-77
2022/08/20 10:23:50;;;;;;;2.07;1.20;;;;;;;24.66;57.49;99662.78;4970897;28;20223;-73
2022/08/20 10:26:16;;;;;;;2.20;1.80;;;;;;;24.54;57.56;99659.72;4979434;28;20199;-76
2022/08/20 10:28:42;;;;;;;1.60;1.50;;;;;;;24.43;58.03;99655.63;4986284;28;20293;-75
2022/08/20 10:31:10;;;;;;;1.60;1.50;;;;;;;24.35;58.04;99649.50;4983616;28;20570;-73
2022/08/20 10:33:37;;;;;;;2.00;1.80;;;;;;;24.37;58.19;99647.50;4981896;28;20435;-76
2022/08/20 10:36:14;;;;;;;1.47;1.37;;;;;;;24.46;57.79;99655.28;4984841;28;20480;-74
2022/08/20 10:38:40;;;;;;;1.43;1.27;;;;;;;24.64;57.59;99648.69;4982655;28;20430;-74
2022/08/20 10:41:06;;;;;;;1.53;1.43;;;;;;;24.77;57.02;99643.47;4982312;28;20451;-74
2022/08/20 10:43:31;;;;;;;1.50;1.30;;;;;;;24.86;56.59;99636.97;4987138;28;20437;-75
2022/08/20 10:45:57;;;;;;;1.27;1.17;;;;;;;25.06;56.12;99633.66;4985920;28;20689;-73
2022/08/20 10:48:22;;;;;;;1.37;1.27;;;;;;;25.32;55.54;99636.63;4974779;28;20669;-78
2022/08/20 10:50:49;;;;;;;2.30;1.70;;;;;;;25.50;54.63;99620.06;4988941;28;20728;-76
2022/08/20 10:53:14;;;;;;;1.83;1.57;;;;;;;25.55;54.46;99632.94;4987807;28;20188;-74
2022/08/20 10:55:40;;;;;;;1.33;1.23;;;;;;;25.51;54.64;99627.09;4983620;28;20493;-73
2022/08/20 10:58:07;;;;;;;1.40;1.30;;;;;;;25.24;54.81;99620.63;4981385;28;20431;-74
2022/08/20 11:00:33;;;;;;;1.43;1.33;;;;;;;25.19;54.89;99625.75;4988025;28;20244;-77
2022/08/20 11:02:59;;;;;;;1.63;1.33;;;;;;;25.22;54.54;99629.91;4989988;28;20500;-73
2022/08/20 11:05:24;;;;;;;2.13;1.43;;;;;;;25.42;54.50;99622.06;4987977;28;20442;-74
2022/08/20 11:07:50;;;;;;;1.57;1.47;;;;;;;25.63;53.85;99616.66;4973092;28;20276;-76
2022/08/20 11:10:16;;;;;;;2.27;1.50;;;;;;;25.83;53.41;99620.34;4985427;28;20316;-74
2022/08/20 11:12:42;;;;;;;2.13;1.40;;;;;;;25.87;52.86;99614.56;4988438;28;20209;-75
2022/08/20 11:15:08;;;;;;;1.20;1.03;;;;;;;25.86;53.19;99612.91;4987837;28;20494;-74
2022/08/20 11:17:35;;;;;;;1.30;1.20;;;;;;;26.01;52.76;99613.63;4987574;28;20459;-77
2022/08/20 11:20:04;;;;;;;2.13;1.53;;;;;;;26.19;52.42;99605.88;4982800;28;20260;-75
2022/08/20 11:22:29;;;;;;;1.43;1.20;;;;;;;26.27;51.98;99600.31;4986009;28;20459;-74
2022/08/20 11:24:55;;;;;;;2.50;1.40;;;;;;;26.33;51.46;99595.13;4985981;28;20424;-78
2022/08/20 11:27:29;;;;;;;1.67;0.90;;;;;;;26.38;51.63;99593.53;4987078;28;20753;-76
2022/08/20 11:29:55;;;;;;;1.73;1.17;;;;;;;26.56;51.32;99593.00;4985224;28;20240;-73
2022/08/20 11:32:20;;;;;;;1.30;1.20;;;;;;;26.77;50.40;99591.22;4985848;28;20445;-74